createdAt,value
2019-06-10T00:00:42.327Z,49.8
2019-06-10T00:01:42.161Z,49.8
2019-06-10T00:02:42.169Z,49.8
2019-06-10T00:03:42.331Z,49.8
2019-06-10T00:04:42.165Z,49.9
2019-06-10T00:05:42.197Z,49.8
2019-06-10T00:06:42.161Z,49.9
2019-06-10T00:07:42.177Z,49.8
2019-06-10T00:08:42.169Z,49.8
2019-06-10T00:09:42.164Z,49.9
2019-06-10T00:10:42.505Z,49.8
2019-06-10T07:06:06.046Z,55.9
2019-06-10T07:07:02.684Z,57.1
2019-06-10T07:08:02.439Z,52.2
2019-06-10T07:09:05.456Z,51.7
2019-06-10T07:10:03.352Z,51.6
2019-06-10T07:11:02.813Z,51.6
2019-06-10T07:12:02.548Z,51.7
2019-06-10T07:13:02.869Z,51.5
2019-06-10T07:14:03.671Z,51.5
2019-06-10T07:15:04.152Z,51.3
2019-06-10T07:16:03.069Z,51.4
2019-06-10T07:17:03.960Z,51.4
2019-06-10T07:18:02.329Z,51.4
2019-06-10T07:19:02.588Z,51.3
2019-06-10T07:20:03.237Z,51.5
2019-06-10T07:21:02.706Z,51.5
2019-06-10T07:22:09.448Z,51.8
2019-06-10T07:23:02.715Z,52.1
2019-06-10T07:24:03.213Z,52.2
2019-06-10T07:25:06.337Z,52.2
2019-06-10T07:26:02.255Z,52.2
2019-06-10T07:27:02.736Z,52.1
2019-06-10T07:28:02.089Z,52.1
2019-06-10T07:29:02.918Z,51.9
2019-06-10T07:30:11.308Z,51.8
2019-06-10T07:31:03.317Z,51.8
2019-06-10T07:32:07.862Z,52.2
2019-06-10T07:33:02.946Z,52.3
2019-06-10T07:34:02.571Z,52.4
2019-06-10T07:35:04.776Z,52.1
2019-06-10T07:36:03.183Z,52.1
2019-06-10T07:37:02.589Z,52.1
2019-06-10T07:38:02.945Z,52.3
2019-06-10T07:39:03.524Z,52.7
2019-06-10T07:40:03.037Z,53.3
2019-06-10T07:41:02.592Z,53.7
2019-06-10T07:42:03.122Z,53.8
2019-06-10T07:43:02.337Z,54.2
2019-06-10T07:44:03.070Z,53.8
2019-06-10T07:45:02.541Z,54.2
2019-06-10T07:46:03.349Z,53.1
2019-06-10T07:47:02.617Z,52
2019-06-10T07:48:02.828Z,51.6
2019-06-10T07:49:03.377Z,51.8
2019-06-10T07:50:02.994Z,51.8
2019-06-10T07:51:02.802Z,51.6
2019-06-10T07:52:13.016Z,51.6
2019-06-10T07:53:02.282Z,51.6
2019-06-10T07:54:03.160Z,51.5
2019-06-10T07:55:02.505Z,51.4
2019-06-10T07:56:03.330Z,51.2
2019-06-10T07:57:02.397Z,51.2
2019-06-10T07:58:02.578Z,51.1
2019-06-10T07:59:03.862Z,51.1
2019-06-10T08:00:03.162Z,51.4
2019-06-10T08:01:02.626Z,50.8
2019-06-10T08:02:03.067Z,51
2019-06-10T08:03:02.463Z,51.1
2019-06-10T08:04:03.104Z,51
2019-06-10T08:05:03.668Z,51.2
2019-06-10T08:06:03.272Z,50.9
2019-06-10T08:07:03.281Z,50.9
2019-06-10T08:08:02.851Z,51
2019-06-10T08:09:02.304Z,51.1
2019-06-10T08:10:02.861Z,50.9
2019-06-10T08:11:03.487Z,50.9
2019-06-10T08:12:05.451Z,51
2019-06-10T08:13:02.955Z,50.9
2019-06-10T08:14:04.580Z,51.1
2019-06-10T08:15:02.792Z,51
2019-06-10T08:16:02.837Z,50.9
2019-06-10T08:17:03.078Z,50.9
2019-06-10T08:18:04.324Z,50.9
2019-06-10T08:19:20.388Z,50.9
2019-06-10T08:20:02.533Z,50.9
2019-06-10T08:21:03.203Z,50.8
2019-06-10T08:22:02.895Z,50.8
2019-06-10T08:23:02.222Z,50.8
2019-06-10T08:24:03.458Z,51.1
2019-06-10T08:25:04.877Z,51
2019-06-10T08:26:03.470Z,50.8
2019-06-10T08:27:02.666Z,50.8
2019-06-10T08:28:03.061Z,50.7
2019-06-10T08:29:04.430Z,50.8
2019-06-10T08:30:15.658Z,50.7
2019-06-10T08:31:03.624Z,50.7
2019-06-10T08:32:03.336Z,50.7
2019-06-10T08:33:03.357Z,50.7
2019-06-10T08:34:02.943Z,50.6
2019-06-10T08:35:02.803Z,50.6
2019-06-10T08:36:03.949Z,50.8
2019-06-10T08:37:04.360Z,50.5
2019-06-10T08:38:02.452Z,50.5
2019-06-10T08:39:03.231Z,50.6
2019-06-10T08:40:19.550Z,50.5
2019-06-10T08:41:03.053Z,50.7
2019-06-10T08:42:03.168Z,50.8
2019-06-10T08:43:04.246Z,50.9
2019-06-10T08:44:02.291Z,50.9
2019-06-10T08:45:03.500Z,50.7
2019-06-10T08:46:02.583Z,50.6
2019-06-10T08:47:03.062Z,50.8
2019-06-10T08:48:02.707Z,51
2019-06-10T08:49:03.155Z,50.8
2019-06-10T08:50:02.635Z,50.5
2019-06-10T08:51:03.874Z,50.8
2019-06-10T08:52:02.662Z,50.7
2019-06-10T08:53:13.892Z,50.7
2019-06-10T08:54:02.350Z,50.7
2019-06-10T08:55:03.346Z,50.7
2019-06-10T08:56:02.853Z,50.7
2019-06-10T08:57:04.391Z,50.7
2019-06-10T08:58:02.869Z,50.5
2019-06-10T08:59:03.217Z,50.5
2019-06-10T09:00:10.626Z,50.7
2019-06-10T09:01:04.640Z,50.7
2019-06-10T09:02:02.974Z,50.5
2019-06-10T09:03:04.487Z,50.7
2019-06-10T09:04:03.132Z,50.8
2019-06-10T09:05:03.633Z,50.7
2019-06-10T09:06:02.778Z,50.5
2019-06-10T09:07:04.210Z,50.6
2019-06-10T09:08:04.551Z,50.7
2019-06-10T09:09:03.165Z,50.7
2019-06-10T09:10:02.971Z,50.6
2019-06-10T09:11:02.401Z,50.8
2019-06-10T09:12:03.591Z,50.7
2019-06-10T09:13:02.748Z,50.6
2019-06-10T09:14:02.612Z,50.5
2019-06-10T09:15:03.707Z,50.4
2019-06-10T09:16:15.513Z,50.4
2019-06-10T09:17:03.450Z,50.2
2019-06-10T09:18:03.924Z,50.1
2019-06-10T09:19:02.358Z,50.1
2019-06-10T09:20:02.929Z,50.1
2019-06-10T09:21:03.189Z,50.1
2019-06-10T09:22:03.426Z,50.2
2019-06-10T09:23:17.847Z,50.1
2019-06-10T09:24:03.933Z,50.1
2019-06-10T09:25:02.906Z,50.1
2019-06-10T09:26:03.638Z,50.1
2019-06-10T09:27:02.847Z,50.1
2019-06-10T09:28:02.393Z,50.2
2019-06-10T09:29:02.912Z,50.1
2019-06-10T09:30:02.953Z,50.2
2019-06-10T09:31:04.068Z,50.2
2019-06-10T09:32:02.158Z,50.1
2019-06-10T09:33:04.240Z,50.2
2019-06-10T09:34:03.977Z,50.2
2019-06-10T09:35:03.414Z,50.1
2019-06-10T09:36:03.344Z,50.2
2019-06-10T09:37:03.973Z,50.2
2019-06-10T09:38:03.694Z,50.2
2019-06-10T09:39:03.985Z,50.2
2019-06-10T09:40:03.482Z,50.1
2019-06-10T09:41:05.976Z,50.1
2019-06-10T09:42:06.137Z,50.1
2019-06-10T09:43:02.509Z,50.1
2019-06-10T09:44:03.310Z,50
2019-06-10T09:45:02.595Z,49.9
2019-06-10T09:46:03.505Z,49.9
2019-06-10T09:47:03.348Z,50
2019-06-10T09:48:03.943Z,49.9
2019-06-10T09:49:02.225Z,49.8
2019-06-10T09:50:03.174Z,49.9
2019-06-10T09:51:02.540Z,50.1
2019-06-10T09:52:03.359Z,50.1
2019-06-10T09:53:03.962Z,50.1
2019-06-10T09:54:06.423Z,50.1
2019-06-10T09:55:02.781Z,50.1
2019-06-10T09:56:04.133Z,50.3
2019-06-10T09:57:02.429Z,50.2
2019-06-10T09:58:03.157Z,50.2
2019-06-10T09:59:03.748Z,50.2
2019-06-10T10:00:04.075Z,50.2
2019-06-10T10:01:03.374Z,50.2
2019-06-10T10:02:03.664Z,50.1
2019-06-10T10:03:03.470Z,50.1
2019-06-10T10:04:01.850Z,50.1
2019-06-10T10:05:02.968Z,50.1
2019-06-10T10:06:11.655Z,50.1
2019-06-10T10:07:03.038Z,50.1
2019-06-10T10:08:01.853Z,50.1
2019-06-10T10:09:03.972Z,50.1
2019-06-10T10:10:04.491Z,50.1
2019-06-10T10:11:03.866Z,50.1
2019-06-10T10:12:03.012Z,50.1
2019-06-10T10:13:02.719Z,50
2019-06-10T10:14:08.489Z,50
2019-06-10T10:15:22.244Z,50.1
2019-06-10T10:16:02.537Z,50
2019-06-10T10:17:04.676Z,50
2019-06-10T10:18:02.519Z,50.1
2019-06-10T10:19:05.172Z,50.1
2019-06-10T10:20:03.220Z,50
2019-06-10T10:21:03.837Z,50
2019-06-10T10:22:02.976Z,50.1
2019-06-10T10:23:02.723Z,50.1
2019-06-10T10:24:09.919Z,50.1
2019-06-10T10:25:03.013Z,50.2
2019-06-10T10:26:03.380Z,50.2
2019-06-10T10:27:04.962Z,50.2
2019-06-10T10:28:03.207Z,50.1
2019-06-10T10:29:02.767Z,50.1
2019-06-10T10:30:03.388Z,50.1
2019-06-10T10:31:04.469Z,50.2
2019-06-10T10:32:02.573Z,50.2
2019-06-10T10:33:02.750Z,50.2
2019-06-10T10:34:02.692Z,50.3
2019-06-10T10:35:03.086Z,50.4
2019-06-10T10:36:02.878Z,50.3
2019-06-10T10:37:02.860Z,50.4
2019-06-10T10:38:03.871Z,50.5
2019-06-10T10:39:02.449Z,50.6
2019-06-10T10:40:03.273Z,50.8
2019-06-10T10:41:04.630Z,50.7
2019-06-10T10:42:03.844Z,50.7
2019-06-10T10:43:20.031Z,50.8
2019-06-10T10:44:03.057Z,50.7
2019-06-10T10:45:02.733Z,50.7
2019-06-10T10:46:05.452Z,50.7
2019-06-10T10:47:03.664Z,50.6
2019-06-10T10:48:02.554Z,50.8
2019-06-10T10:49:02.710Z,50.8
2019-06-10T10:50:02.813Z,50.9
2019-06-10T10:51:03.482Z,50.8
2019-06-10T10:52:02.649Z,50.8
2019-06-10T10:53:01.910Z,50.7
2019-06-10T10:54:21.013Z,50.6
2019-06-10T10:55:06.655Z,50.7
2019-06-10T10:56:02.356Z,50.6
2019-06-10T10:57:02.658Z,50.5
2019-06-10T10:58:03.187Z,50.6
2019-06-10T10:59:02.228Z,50.5
2019-06-10T11:00:03.212Z,50.5
2019-06-10T11:01:04.238Z,50.4
2019-06-10T11:02:02.459Z,50.4
2019-06-10T11:03:02.890Z,50.4
2019-06-10T11:04:03.682Z,50.3
2019-06-10T11:05:01.981Z,50.4
2019-06-10T11:06:02.067Z,50.3
2019-06-10T11:07:01.922Z,50.3
2019-06-10T11:08:04.177Z,50.4
2019-06-10T11:09:01.935Z,50.3
2019-06-10T11:10:03.902Z,50.3
2019-06-10T11:11:05.151Z,50.4
2019-06-10T11:12:02.822Z,50.3
2019-06-10T11:13:02.344Z,50.4
2019-06-10T11:14:03.529Z,50.3
2019-06-10T11:15:05.027Z,50.5
2019-06-10T11:16:03.522Z,50.3
2019-06-10T11:17:02.915Z,50.6
2019-06-10T11:18:03.830Z,50.5
2019-06-10T11:19:02.547Z,50.6
2019-06-10T11:20:03.845Z,50.6
2019-06-10T11:21:04.774Z,50.4
2019-06-10T11:22:02.792Z,50.5
2019-06-10T11:23:02.927Z,50.5
2019-06-10T11:24:04.627Z,50.5
2019-06-10T11:25:01.967Z,50.5
2019-06-10T11:26:01.940Z,50.4
2019-06-10T11:27:03.160Z,50.4
2019-06-10T11:28:04.058Z,50.4
2019-06-10T11:29:03.077Z,50.6
2019-06-10T11:30:02.500Z,50.7
2019-06-10T11:31:03.821Z,50.6
2019-06-10T11:32:02.501Z,50.6
2019-06-10T11:33:03.351Z,50.7
2019-06-10T11:34:03.151Z,50.5
2019-06-10T11:35:02.884Z,50.5
2019-06-10T11:36:02.841Z,50.3
2019-06-10T11:37:02.404Z,50.4
2019-06-10T11:38:03.237Z,50.3
2019-06-10T11:39:02.793Z,50.4
2019-06-10T11:40:02.900Z,50.4
2019-06-10T11:41:01.972Z,50.2
2019-06-10T11:42:03.652Z,50.3
2019-06-10T11:43:02.023Z,50.3
2019-06-10T11:44:01.980Z,50.3
2019-06-10T11:45:02.892Z,50.2
2019-06-10T11:46:07.116Z,50.3
2019-06-10T11:47:03.199Z,50.5
2019-06-10T11:48:02.474Z,50.5
2019-06-10T11:49:03.891Z,50.5
2019-06-10T11:50:03.446Z,50.3
2019-06-10T11:51:04.438Z,50.2
2019-06-10T11:52:03.292Z,50.3
2019-06-10T11:53:04.233Z,50.4
2019-06-10T11:54:05.147Z,50.3
2019-06-10T11:55:11.893Z,50.2
2019-06-10T11:56:02.479Z,50.2
2019-06-10T11:57:02.016Z,50.1
2019-06-10T11:58:02.041Z,50.1
2019-06-10T11:59:08.948Z,50.2
2019-06-10T12:00:13.208Z,50.2
2019-06-10T12:01:03.901Z,50.2
2019-06-10T12:02:05.698Z,50.3
2019-06-10T12:03:03.504Z,50.2
2019-06-10T12:04:04.063Z,50.1
2019-06-10T12:05:04.056Z,49.8
2019-06-10T12:06:05.153Z,49.7
2019-06-10T12:07:02.462Z,49.6
2019-06-10T12:08:02.852Z,49.5
2019-06-10T12:09:02.990Z,49.4
2019-06-10T12:10:02.054Z,49.3
2019-06-10T12:11:02.473Z,49.4
2019-06-10T12:12:02.417Z,49.4
2019-06-10T12:13:07.134Z,49.4
2019-06-10T12:14:03.940Z,49.3
2019-06-10T12:15:02.034Z,49.3
2019-06-10T12:17:24.789Z,49.8
2019-06-10T12:18:07.938Z,49.8
2019-06-10T12:19:03.520Z,49.7
2019-06-10T12:20:03.245Z,49.9
2019-06-10T12:21:03.661Z,49.6
2019-06-10T12:22:06.619Z,49.8
2019-06-10T12:23:04.320Z,49.8
2019-06-10T12:24:02.862Z,49.9
2019-06-10T12:25:25.066Z,49.9
2019-06-10T12:26:04.829Z,49.9
2019-06-10T12:27:04.808Z,49.9
2019-06-10T12:28:04.526Z,49.9
2019-06-10T12:29:05.498Z,49.9
2019-06-10T12:30:04.820Z,49.8
2019-06-10T12:31:06.597Z,49.8
2019-06-10T12:32:06.870Z,49.8
2019-06-10T12:33:05.371Z,49.8
2019-06-10T12:34:03.265Z,49.8
2019-06-10T12:35:05.266Z,49.8
2019-06-10T12:36:06.166Z,49.8
2019-06-10T12:37:10.372Z,49.9
2019-06-10T12:38:05.873Z,49.8
2019-06-10T12:39:07.857Z,49.8
2019-06-10T12:40:05.522Z,49.9
2019-06-10T12:41:07.923Z,49.9
2019-06-10T12:42:06.172Z,50.5
2019-06-10T12:43:04.702Z,50.4
2019-06-10T12:44:03.319Z,50.4
2019-06-10T12:45:05.927Z,50.8
2019-06-10T12:46:03.281Z,50
2019-06-10T12:47:07.456Z,50.2
2019-06-10T12:48:05.055Z,50.1
2019-06-10T12:49:03.932Z,50
2019-06-10T12:50:04.164Z,50.1
2019-06-10T12:51:06.300Z,50.1
2019-06-10T12:52:05.328Z,50
2019-06-10T12:53:06.630Z,50.1
2019-06-10T12:54:04.835Z,50.1
2019-06-10T12:55:02.404Z,50.1
2019-06-10T12:56:08.023Z,50.1
2019-06-10T12:57:04.707Z,50
2019-06-10T12:58:04.235Z,50.1
2019-06-10T12:59:06.742Z,50.1
2019-06-10T13:00:14.402Z,50.2
2019-06-10T13:01:04.498Z,50.1
2019-06-10T13:02:12.438Z,50.1
2019-06-10T13:03:03.776Z,50.1
2019-06-10T13:04:05.426Z,50.2
2019-06-10T13:05:04.746Z,50.2
2019-06-10T13:06:04.737Z,50.4
2019-06-10T13:07:14.175Z,50.3
2019-06-10T13:08:09.769Z,50.2
2019-06-10T13:09:09.780Z,50.2
2019-06-10T13:10:12.007Z,50.1
2019-06-10T13:11:09.797Z,50
2019-06-10T13:12:12.227Z,50
2019-06-10T13:13:10.441Z,50.2
2019-06-10T13:14:09.772Z,50.1
2019-06-10T13:15:09.828Z,50.1
2019-06-10T13:16:11.419Z,50.2
2019-06-10T13:17:09.840Z,50.1
2019-06-10T13:18:13.460Z,50.1
2019-06-10T13:19:09.794Z,50.1
2019-06-10T13:20:13.426Z,50.1
2019-06-10T13:21:13.330Z,50.1
2019-06-10T13:22:09.789Z,50.1
2019-06-10T13:23:17.362Z,49.9
2019-06-10T13:24:09.790Z,50.1
2019-06-10T13:25:09.824Z,50.1
2019-06-10T13:26:15.010Z,50.1
2019-06-10T13:27:09.797Z,50.2
2019-06-10T13:28:09.801Z,50.3
2019-06-10T13:29:10.353Z,50.2
2019-06-10T13:30:09.829Z,50.2
2019-06-10T13:31:10.187Z,50.2
2019-06-10T13:32:09.795Z,50.3
2019-06-10T13:33:12.031Z,50.2
2019-06-10T13:34:17.364Z,50.3
2019-06-10T13:35:13.001Z,50.1
2019-06-10T13:36:12.996Z,50.1
2019-06-10T13:37:16.139Z,50.3
2019-06-10T13:38:12.998Z,50.3
2019-06-10T13:39:13.486Z,50.4
2019-06-10T13:40:13.147Z,50.3
2019-06-10T13:41:13.005Z,50.3
2019-06-10T13:42:13.648Z,50.4
2019-06-10T13:43:13.220Z,50.6
2019-06-10T13:44:16.634Z,50.5
2019-06-10T13:45:13.052Z,50.6
2019-06-10T13:46:13.027Z,50.7
2019-06-10T13:47:14.823Z,50.9
2019-06-10T13:48:14.970Z,51
2019-06-10T13:49:15.259Z,50.8
2019-06-10T13:50:14.458Z,50.8
2019-06-10T13:51:22.537Z,50.8
2019-06-10T13:52:16.766Z,51
2019-06-10T13:53:16.165Z,51
2019-06-10T13:54:16.173Z,50.9
2019-06-10T13:55:16.218Z,50.8
2019-06-10T13:56:37.792Z,50.8
2019-06-10T13:57:16.174Z,50.6
2019-06-10T13:58:16.175Z,50.8
2019-06-10T13:59:16.186Z,50.8
2019-06-10T14:00:16.235Z,51.1
2019-06-10T14:01:21.337Z,51
2019-06-10T14:02:16.190Z,51.2
2019-06-10T14:03:16.424Z,51.3
2019-06-10T14:04:21.419Z,51.1
2019-06-10T14:05:18.229Z,51.3
2019-06-10T14:06:33.143Z,51.3
2019-06-10T14:07:17.477Z,51.4
2019-06-10T14:08:16.193Z,51.3
2019-06-10T14:09:16.795Z,51.3
2019-06-10T14:10:18.117Z,51.1
2019-06-10T14:11:16.189Z,51.1
2019-06-10T14:12:17.527Z,51.1
2019-06-10T14:13:16.206Z,51.4
2019-06-10T14:14:18.211Z,51.3
2019-06-10T14:15:17.207Z,51.2
2019-06-10T14:16:16.197Z,51
2019-06-10T14:17:19.431Z,51.1
2019-06-10T14:18:16.217Z,51.1
2019-06-10T14:19:16.549Z,51.5
2019-06-10T14:20:16.246Z,51.3
2019-06-10T14:21:18.499Z,51.4
2019-06-10T14:22:16.370Z,51.2
2019-06-10T14:23:17.606Z,51.3
2019-06-10T14:24:16.425Z,51.7
2019-06-10T14:25:17.019Z,51.6
2019-06-10T14:26:17.076Z,51.4
2019-06-10T14:27:20.471Z,51.3
2019-06-10T14:28:34.862Z,51.7
2019-06-10T14:29:16.970Z,51.5
2019-06-10T14:30:16.246Z,51.8
2019-06-10T14:31:38.242Z,51.3
2019-06-10T14:32:16.251Z,51.2
2019-06-10T14:33:16.719Z,51.4
2019-06-10T14:34:18.383Z,51.7
2019-06-10T14:35:17.654Z,51.7
2019-06-10T14:36:16.905Z,51.6
2019-06-10T14:37:29.672Z,51.6
2019-06-10T14:38:16.215Z,51.4
2019-06-10T14:39:16.225Z,51.4
2019-06-10T14:40:20.862Z,51.3
2019-06-10T14:41:16.219Z,51.3
2019-06-10T14:42:16.352Z,51.5
2019-06-10T14:43:16.359Z,51.4
2019-06-10T14:44:17.796Z,51.4
2019-06-10T14:45:16.604Z,51.4
2019-06-10T14:46:17.586Z,51.4
2019-06-10T14:47:16.905Z,51.3
2019-06-10T14:48:17.606Z,51.1
2019-06-10T14:49:16.978Z,51.7
2019-06-10T14:50:17.334Z,51.5
2019-06-10T14:51:17.055Z,51.4
2019-06-10T14:52:16.875Z,51.6
2019-06-10T14:53:16.947Z,51.6
2019-06-10T14:54:18.011Z,51.4
2019-06-10T14:55:18.369Z,51.6
2019-06-10T14:56:19.196Z,51.5
2019-06-10T14:57:16.824Z,51.5
2019-06-10T14:58:19.113Z,51.4
2019-06-10T14:59:17.991Z,51.5
2019-06-10T15:00:18.028Z,51.5
2019-06-10T15:01:24.053Z,51.2
2019-06-10T15:02:17.486Z,51.1
2019-06-10T15:03:19.682Z,51.3
2019-06-10T15:04:17.840Z,51.3
2019-06-10T15:05:17.485Z,51.2
2019-06-10T15:06:16.253Z,51.1
2019-06-10T15:07:16.269Z,51.1
2019-06-10T15:08:17.335Z,51.2
2019-06-10T15:09:16.254Z,51.4
2019-06-10T15:10:17.811Z,51.3
2019-06-10T15:11:16.262Z,51.5
2019-06-10T15:12:17.442Z,51.5
2019-06-10T15:13:16.262Z,51.5
2019-06-10T15:14:17.716Z,51.4
2019-06-10T15:15:16.298Z,51.5
2019-06-10T15:16:16.538Z,51.5
2019-06-10T15:17:16.831Z,51.4
2019-06-10T15:18:18.124Z,51.5
2019-06-10T15:19:20.020Z,51.4
2019-06-10T15:20:16.294Z,51.5
2019-06-10T15:21:17.267Z,51.5
2019-06-10T15:25:28.639Z,51.4
2019-06-10T15:25:49.008Z,51.3
2019-06-10T15:25:58.753Z,51.4
2019-06-10T15:26:05.141Z,51.3
2019-06-10T15:26:17.738Z,51.2
2019-06-10T15:27:24.814Z,51.3
2019-06-10T15:28:17.535Z,51.2
2019-06-10T15:29:17.480Z,51.4
2019-06-10T15:30:25.801Z,51.4
2019-06-10T15:31:17.663Z,51.3
2019-06-10T15:32:28.584Z,51.3
2019-06-10T15:33:16.964Z,51.2
2019-06-10T15:34:18.027Z,51.4
2019-06-10T15:35:19.474Z,51.4
2019-06-10T15:36:17.488Z,51.4
2019-06-10T15:37:18.570Z,51.5
2019-06-10T15:38:18.127Z,51.2
2019-06-10T15:39:19.317Z,51.3
2019-06-10T15:40:17.029Z,51.4
2019-06-10T15:41:19.886Z,51.5
2019-06-10T15:42:17.709Z,51.4
2019-06-10T15:43:16.294Z,51.1
2019-06-10T15:44:28.581Z,51.4
2019-06-10T15:45:17.985Z,51
2019-06-10T15:46:17.634Z,51.4
2019-06-10T15:47:19.243Z,51.3
2019-06-10T15:48:18.234Z,51.3
2019-06-10T15:49:19.306Z,51.2
2019-06-10T15:50:17.360Z,51.1
2019-06-10T15:51:19.163Z,51.1
2019-06-10T15:52:18.782Z,51.2
2019-06-10T15:53:17.598Z,51.1
2019-06-10T15:54:17.690Z,51.2
2019-06-10T15:55:37.826Z,51.2
2019-06-10T15:56:24.982Z,51.1
2019-06-10T15:57:31.998Z,51.2
2019-06-10T15:58:17.447Z,51.2
2019-06-10T15:59:18.006Z,51.3
2019-06-10T16:00:21.718Z,51.2
2019-06-10T16:01:20.042Z,51.4
2019-06-10T16:02:17.969Z,51.4
2019-06-10T16:03:17.727Z,51.3
2019-06-10T16:04:17.661Z,51.1
2019-06-10T16:05:17.478Z,51.3
2019-06-10T16:06:16.373Z,51.1
2019-06-10T16:07:17.393Z,51.4
2019-06-10T16:08:17.343Z,51.4
2019-06-10T16:09:17.007Z,51.2
2019-06-10T16:10:19.643Z,51.1
2019-06-10T16:11:18.071Z,51.1
2019-06-10T16:12:17.671Z,51.1
2019-06-10T16:13:16.477Z,51.1
2019-06-10T16:14:16.713Z,51.1
2019-06-10T16:15:17.742Z,51.1
2019-06-10T16:16:16.872Z,51
2019-06-10T16:17:17.429Z,51
2019-06-10T16:18:17.121Z,51.1
2019-06-10T16:19:17.744Z,51
2019-06-10T16:20:17.717Z,51
2019-06-10T16:21:17.041Z,50.9
2019-06-10T16:22:17.410Z,50.8
2019-06-10T16:23:17.548Z,50.8
2019-06-10T16:25:20.015Z,50.8
2019-06-10T16:26:30.013Z,50.8
2019-06-10T16:27:43.613Z,50.7
2019-06-10T16:28:26.524Z,50.7
2019-06-10T16:29:26.964Z,50.7
2019-06-10T16:30:26.074Z,50.6
2019-06-10T16:31:27.386Z,50.3
2019-06-10T16:32:26.511Z,50.3
2019-06-10T16:33:27.678Z,50.3
2019-06-10T16:34:28.875Z,50.3
2019-06-10T16:35:27.024Z,50.2
2019-06-10T16:36:27.803Z,50.2
2019-06-10T16:37:26.963Z,50.2
2019-06-10T16:38:42.297Z,50.3
2019-06-10T16:39:34.120Z,50.2
2019-06-10T16:40:46.945Z,50.3
2019-06-10T16:41:43.014Z,50.2
2019-06-10T16:42:43.138Z,50.3
2019-06-10T16:43:42.953Z,50.3
2019-06-10T16:44:43.802Z,50.2
2019-06-10T16:45:43.308Z,50.2
2019-06-10T16:46:44.337Z,50.3
2019-06-10T16:47:43.073Z,50.3
2019-06-10T16:48:43.561Z,50.4
2019-06-10T16:49:42.931Z,50.4
2019-06-10T16:50:42.782Z,50.3
2019-06-10T16:51:42.997Z,50.5
2019-06-10T16:52:43.178Z,50.5
2019-06-10T16:53:42.721Z,50.5
2019-06-10T16:54:42.604Z,50.4
2019-06-10T16:55:42.586Z,50.5
2019-06-10T16:56:43.479Z,50.4
2019-06-10T16:57:42.584Z,50.4
2019-06-10T16:58:43.281Z,50.5
2019-06-10T16:59:42.996Z,50.4
2019-06-10T17:00:43.340Z,50.4
2019-06-10T17:01:42.893Z,50.4
2019-06-10T17:02:42.763Z,50.4
2019-06-10T17:03:42.674Z,50.4
2019-06-10T17:04:43.543Z,50.4
2019-06-10T17:05:42.705Z,50.4
2019-06-10T17:06:42.626Z,50.3
2019-06-10T17:07:43.482Z,50.3
2019-06-10T17:08:42.751Z,50.4
2019-06-10T17:09:42.607Z,50.3
2019-06-10T17:10:43.528Z,50.3
2019-06-10T17:11:42.814Z,50.3
2019-06-10T17:12:42.698Z,50.4
2019-06-10T17:13:42.610Z,50.4
2019-06-10T17:14:42.901Z,50.5
2019-06-10T17:15:42.618Z,50.8
2019-06-10T17:16:42.641Z,50.8
2019-06-10T17:17:42.612Z,50.7
2019-06-10T17:18:42.624Z,51.6
2019-06-10T17:19:42.639Z,51.6
2019-06-10T17:20:43.043Z,51.9
2019-06-10T17:21:42.669Z,51.8
2019-06-10T17:22:43.419Z,51.8
2019-06-10T17:23:43.437Z,52.2
2019-06-10T17:24:42.617Z,52.5
2019-06-10T17:25:42.865Z,52.1
2019-06-10T17:26:42.752Z,52.2
2019-06-10T17:27:42.627Z,52.3
2019-06-10T17:28:42.919Z,52.4
2019-06-10T17:29:42.789Z,52
2019-06-10T17:30:42.716Z,52
2019-06-10T17:31:42.726Z,52.1
2019-06-10T17:32:42.712Z,52.1
2019-06-10T17:33:42.872Z,51.9
2019-06-10T17:34:42.702Z,51.9
2019-06-10T17:35:43.231Z,51
2019-06-10T17:36:42.816Z,50.5
2019-06-10T17:37:43.198Z,49.9
2019-06-10T17:38:43.096Z,49.6
2019-06-10T17:39:42.849Z,49.4
2019-06-10T17:40:42.638Z,49
2019-06-10T17:41:42.879Z,48.9
2019-06-10T17:42:42.927Z,48.8
2019-06-10T17:43:42.966Z,48.8
2019-06-10T17:44:42.972Z,48.8
2019-06-10T17:45:42.644Z,48.9
2019-06-10T17:46:42.752Z,49.2
2019-06-10T17:47:42.791Z,49.2
2019-06-10T17:48:43.144Z,49.4
2019-06-10T17:49:42.645Z,49.5
2019-06-10T17:50:42.925Z,49.7
2019-06-10T17:51:43.331Z,49.8
2019-06-10T17:52:42.772Z,49.8
2019-06-10T17:53:42.816Z,49.9
2019-06-10T17:54:42.649Z,49.9
2019-06-10T17:55:42.661Z,49.9
2019-06-10T17:56:42.814Z,50.1
2019-06-10T17:57:43.044Z,50.2
2019-06-10T17:58:53.326Z,50.3
2019-06-10T17:59:42.648Z,50.1
2019-06-10T18:00:42.659Z,50.2
2019-06-10T18:01:42.685Z,50.1
2019-06-10T18:02:42.703Z,50.2
2019-06-10T18:03:43.036Z,50.2
2019-06-10T18:04:45.473Z,50.3
2019-06-10T18:05:42.698Z,50.4
2019-06-10T18:06:42.720Z,50.8
2019-06-10T18:07:42.665Z,51.2
2019-06-10T18:08:42.671Z,51.4
2019-06-10T18:09:42.661Z,51.5
2019-06-10T18:10:43.476Z,51.6
2019-06-10T18:11:42.995Z,51.5
2019-06-10T18:12:42.668Z,51.6
2019-06-10T18:13:43.024Z,51.7
2019-06-10T18:14:43.075Z,51.5
2019-06-10T18:15:42.677Z,51.6
2019-06-10T18:16:42.801Z,51.7
2019-06-10T18:17:42.768Z,51.7
2019-06-10T18:18:42.767Z,51.7
2019-06-10T18:19:43.322Z,51.5
2019-06-10T18:20:43.433Z,51.6
2019-06-10T18:21:42.709Z,51.6
2019-06-10T18:22:42.683Z,51.7
2019-06-10T18:23:43.514Z,51.7
2019-06-10T18:24:43.075Z,51.7
2019-06-10T18:25:43.242Z,51.7
2019-06-10T18:26:42.717Z,51.8
2019-06-10T18:27:42.690Z,51.8
2019-06-10T18:28:57.808Z,51.8
2019-06-10T18:29:42.799Z,51.8
2019-06-10T18:30:43.538Z,51.7
2019-06-10T18:31:42.948Z,51.9
2019-06-10T18:32:43.034Z,52
2019-06-10T18:33:42.717Z,51.9
2019-06-10T18:34:42.785Z,51.9
2019-06-10T18:35:42.702Z,52
2019-06-10T18:36:42.852Z,52.1
2019-06-10T18:37:42.705Z,52
2019-06-10T18:38:43.385Z,52
2019-06-10T18:39:43.161Z,52
2019-06-10T18:40:43.010Z,51.9
2019-06-10T18:41:43.957Z,51.9
2019-06-10T18:42:42.700Z,52
2019-06-10T18:43:42.709Z,51.9
2019-06-10T18:44:42.694Z,52
2019-06-10T18:45:42.701Z,52
2019-06-10T18:46:43.516Z,52.2
2019-06-10T18:47:42.718Z,52.2
2019-06-10T18:48:43.201Z,52
2019-06-10T18:49:43.238Z,52.2
2019-06-10T18:50:43.230Z,52.2
2019-06-10T18:51:43.464Z,52.2
2019-06-10T18:52:43.321Z,52
2019-06-10T18:53:42.838Z,52
2019-06-10T18:54:43.498Z,52.1
2019-06-10T18:55:43.598Z,52.3
2019-06-10T18:56:43.094Z,52.2
2019-06-10T18:57:42.741Z,52.2
2019-06-10T18:58:42.798Z,52.3
2019-06-10T18:59:42.874Z,52.2
2019-06-10T19:00:56.924Z,52.4
2019-06-10T19:01:43.029Z,52.2
2019-06-10T19:02:42.741Z,52.3
2019-06-10T19:03:43.208Z,52.5
2019-06-10T19:04:43.490Z,52.4
2019-06-10T19:05:42.737Z,52.5
2019-06-10T19:06:43.236Z,52.4
2019-06-10T19:07:43.032Z,52.5
2019-06-10T19:08:44.318Z,52.3
2019-06-10T19:09:47.589Z,52.6
2019-06-10T19:10:46.761Z,52.6
2019-06-10T19:11:46.256Z,52.4
2019-06-10T19:12:46.272Z,52.5
2019-06-10T19:13:46.232Z,52.6
2019-06-10T19:14:46.217Z,52.5
2019-06-10T19:15:46.230Z,52.6
2019-06-10T19:16:46.871Z,52.6
2019-06-10T19:17:46.246Z,52.7
2019-06-10T19:18:46.278Z,52.7
2019-06-10T19:19:46.227Z,52.7
2019-06-10T19:20:46.246Z,52.6
2019-06-10T19:21:59.152Z,52.6
2019-06-10T19:22:46.270Z,52.7
2019-06-10T19:23:46.246Z,52.7
2019-06-10T19:24:46.241Z,52.7
2019-06-10T19:25:46.246Z,52.7
2019-06-10T19:26:46.295Z,52.7
2019-06-10T19:27:46.257Z,52.6
2019-06-10T19:28:46.278Z,52.7
2019-06-10T19:29:50.996Z,52.7
2019-06-10T19:30:46.252Z,52.8
2019-06-10T19:31:47.306Z,52.8
2019-06-10T19:32:46.264Z,52.8
2019-06-10T19:33:46.362Z,52.7
2019-06-10T19:34:48.327Z,52.8
2019-06-10T19:35:46.265Z,52.7
2019-06-10T19:36:46.309Z,52.9
2019-06-10T19:37:46.344Z,52.8
2019-06-10T19:38:46.251Z,52.7
2019-06-10T19:39:53.201Z,52.8
2019-06-10T19:40:46.283Z,52.7
2019-06-10T19:41:47.408Z,52.8
2019-06-10T19:42:46.266Z,52.6
2019-06-10T19:43:46.266Z,52.7
2019-06-10T19:44:46.284Z,52.7
2019-06-10T19:45:46.866Z,52.7
2019-06-10T19:46:46.309Z,52.9
2019-06-10T19:47:46.390Z,52.8
2019-06-10T19:48:56.795Z,52.8
2019-06-10T19:49:46.277Z,52.7
2019-06-10T19:50:50.136Z,52.6
2019-06-10T19:51:46.929Z,52.6
2019-06-10T19:52:46.274Z,52.7
2019-06-10T19:53:46.420Z,52.5
2019-06-10T19:54:46.273Z,52.8
2019-06-10T19:55:46.308Z,52.6
2019-06-10T19:56:46.322Z,52.7
2019-06-10T19:57:46.276Z,52.8
2019-06-10T19:58:46.596Z,52.7
2019-06-10T20:00:02.805Z,52.6
2019-06-10T20:00:50.877Z,52.7
2019-06-10T20:01:48.660Z,52.6
2019-06-10T20:02:46.985Z,52.7
2019-06-10T20:03:47.087Z,52.7
2019-06-10T20:04:46.290Z,52.6
2019-06-10T20:05:46.865Z,52.7
2019-06-10T20:06:50.292Z,52.6
2019-06-10T20:07:48.486Z,52.7
2019-06-10T20:08:46.341Z,52.6
2019-06-10T20:09:46.402Z,52.7
2019-06-10T20:10:46.286Z,52.4
2019-06-10T20:11:47.417Z,52.5
2019-06-10T20:12:46.737Z,52.7
2019-06-10T20:13:46.869Z,52.7
2019-06-10T20:14:46.712Z,52.7
2019-06-10T20:15:47.976Z,52.6
2019-06-10T20:16:46.437Z,52.5
2019-06-10T20:17:46.305Z,52.6
2019-06-10T20:18:47.847Z,52.5